Time;durP1;ratioP1;P1;durP2;ratioP2;P2;SDS_P1;SDS_P2;PMS_P1;PMS_P2;Temp;Humidity;BMP_temperature;BMP_pressure;BME280_temperature;BME280_humidity;BME280_pressure;Samples;Min_cycle;Max_cycle;Signal;HPM_P1;HPM_P2
2023/09/06 00:01:33;;;;;;;3.22;2.50;;;;;;;19.77;78.18;101764.28;5046216;28;20490;-54
2023/09/06 00:03:58;;;;;;;3.67;2.55;;;;;;;19.78;79.62;101768.69;5048197;28;20529;-53
2023/09/06 00:06:24;;;;;;;3.50;2.47;;;;;;;19.76;78.86;101775.22;5055511;28;20025;-54
2023/09/06 00:08:50;;;;;;;4.03;2.90;;;;;;;19.72;79.89;101763.88;5048331;28;20067;-53
2023/09/06 00:11:16;;;;;;;5.15;3.00;;;;;;;19.70;80.53;101770.41;5051212;28;20037;-55
2023/09/06 00:13:41;;;;;;;6.10;3.08;;;;;;;19.68;81.38;101772.41;5049841;28;20499;-53
2023/09/06 00:16:07;;;;;;;5.50;3.08;;;;;;;19.64;80.90;101754.88;5042207;28;20028;-53
2023/09/06 00:18:33;;;;;;;4.45;3.00;;;;;;;19.57;82.07;101765.44;5055680;28;20025;-54
2023/09/06 00:20:58;;;;;;;4.28;2.53;;;;;;;19.52;82.90;101765.88;5047812;28;20032;-53
2023/09/06 00:23:25;;;;;;;4.25;2.88;;;;;;;19.51;82.13;101761.47;5044597;28;20042;-52
2023/09/06 00:25:50;;;;;;;3.15;2.67;;;;;;;19.44;82.70;101763.13;5043334;28;20099;-52
2023/09/06 00:28:17;;;;;;;6.60;2.70;;;;;;;19.40;82.99;101759.00;5047099;28;20033;-51
2023/09/06 00:30:45;;;;;;;3.97;2.80;;;;;;;19.36;83.16;101755.78;5043548;28;20029;-51
2023/09/06 00:33:11;;;;;;;4.95;3.20;;;;;;;19.35;82.42;101750.53;5047547;28;20057;-51
2023/09/06 00:35:38;;;;;;;4.43;2.58;;;;;;;19.30;83.76;101759.09;5050196;28;20492;-50
2023/09/06 00:38:04;;;;;;;4.90;2.63;;;;;;;19.27;84.50;101759.41;5050273;28;20052;-50
2023/09/06 00:40:30;;;;;;;2.88;2.50;;;;;;;19.22;83.37;101754.47;5051591;28;20021;-53
2023/09/06 00:42:59;;;;;;;5.15;2.92;;;;;;;19.19;83.48;101756.63;5050049;28;20052;-50
2023/09/06 00:45:28;;;;;;;3.22;2.95;;;;;;;19.15;83.06;101768.69;5042494;28;20029;-50
2023/09/06 00:47:56;;;;;;;6.70;3.15;;;;;;;19.13;83.53;101768.84;5050043;28;20029;-51
2023/09/06 00:50:22;;;;;;;8.52;3.05;;;;;;;19.12;83.05;101755.53;5045359;28;20025;-51
2023/09/06 00:52:49;;;;;;;6.28;2.80;;;;;;;19.12;83.39;101755.53;5049598;28;20458;-51
2023/09/06 00:55:14;;;;;;;7.57;3.13;;;;;;;19.09;83.25;101772.84;5041306;28;20117;-51
2023/09/06 00:57:40;;;;;;;7.88;3.00;;;;;;;19.10;83.19;101768.28;5044857;28;20107;-50
2023/09/06 01:00:19;;;;;;;6.40;3.22;;;;;;;19.09;81.79;101766.63;5046576;28;20450;-51
2023/09/06 01:02:47;;;;;;;6.82;3.28;;;;;;;19.09;82.74;101770.16;5047437;28;20071;-51
2023/09/06 01:05:13;;;;;;;6.68;2.90;;;;;;;19.05;83.10;101768.75;5043598;28;20033;-51
2023/09/06 01:07:42;;;;;;;6.30;3.40;;;;;;;19.05;82.75;101771.44;5046562;28;20943;-52
2023/09/06 01:10:07;;;;;;;;;;;;;;;19.15;80.29;101777.63;5043672;28;20106;-50
2023/09/06 01:12:35;;;;;;;6.05;3.40;;;;;;;19.06;82.15;101769.63;5044954;28;19909;-51
2023/09/06 01:15:04;;;;;;;7.43;2.92;;;;;;;19.03;82.48;101766.22;5043297;28;20029;-51
2023/09/06 01:17:31;;;;;;;5.35;3.20;;;;;;;19.01;82.55;101764.66;5046722;28;20082;-50
2023/09/06 01:20:09;;;;;;;5.03;3.30;;;;;;;18.99;83.14;101772.91;5042351;28;20025;-51
2023/09/06 01:22:40;;;;;;;4.65;3.13;;;;;;;18.98;82.98;101763.13;5044372;28;20026;-53
2023/09/06 01:25:08;;;;;;;4.38;3.30;;;;;;;18.96;83.23;101770.50;5046634;28;20075;-50
2023/09/06 01:27:33;;;;;;;5.33;3.00;;;;;;;18.96;83.74;101769.66;5037555;28;20033;-51
2023/09/06 01:29:59;;;;;;;4.55;3.10;;;;;;;18.91;84.11;101767.41;5041041;28;20423;-50
2023/09/06 01:32:27;;;;;;;4.57;2.83;;;;;;;18.90;83.50;101765.75;5037652;28;20348;-50
2023/09/06 01:34:54;;;;;;;7.07;3.15;;;;;;;18.87;85.44;101771.41;5042739;28;20336;-50
2023/09/06 01:37:21;;;;;;;3.67;2.90;;;;;;;18.88;84.64;101770.41;5047794;28;20080;-50
2023/09/06 01:39:46;;;;;;;4.07;2.80;;;;;;;18.82;86.32;101777.22;5051893;28;20032;-51
2023/09/06 01:42:12;;;;;;;5.60;3.17;;;;;;;18.76;85.94;101771.56;5050184;28;20024;-50
2023/09/06 01:44:37;;;;;;;4.25;2.78;;;;;;;18.74;86.26;101774.41;5043219;28;20106;-53
2023/09/06 01:47:03;;;;;;;6.97;3.43;;;;;;;18.71;86.65;101773.88;5049706;28;20029;-51
2023/09/06 01:49:29;;;;;;;7.85;3.40;;;;;;;18.66;86.50;101772.44;5045494;28;20286;-51
2023/09/06 01:51:55;;;;;;;6.47;3.17;;;;;;;18.64;87.31;101774.44;5049977;28;20037;-51
2023/09/06 01:54:20;;;;;;;7.20;3.25;;;;;;;18.58;87.72;101771.50;5040637;28;20037;-51
2023/09/06 01:56:45;;;;;;;4.65;3.50;;;;;;;18.55;87.79;101771.78;5050830;28;20037;-50
2023/09/06 01:59:10;;;;;;;5.47;3.55;;;;;;;18.56;87.07;101782.41;5047503;28;20025;-51
2023/09/06 02:01:36;;;;;;;4.78;3.03;;;;;;;18.52;87.76;101780.16;5039919;28;20025;-51
2023/09/06 02:04:05;;;;;;;5.05;3.45;;;;;;;18.49;87.32;101778.63;5046953;28;20029;-51
2023/09/06 02:06:30;;;;;;;;;;;;;;;18.59;84.32;101778.59;5044493;28;20028;-51
2023/09/06 02:08:56;;;;;;;3.77;3.10;;;;;;;18.46;88.17;101781.59;5042658;28;19912;-52
2023/09/06 02:11:21;;;;;;;5.80;3.40;;;;;;;18.40;89.19;101779.47;5051734;28;20016;-52
2023/09/06 02:13:47;;;;;;;6.35;3.15;;;;;;;18.36;88.93;101778.09;5042056;28;20111;-50
2023/09/06 02:16:12;;;;;;;4.22;3.40;;;;;;;18.29;89.29;101773.28;5045715;28;20030;-51
2023/09/06 02:18:37;;;;;;;4.13;3.00;;;;;;;18.24;89.03;101772.88;5042649;28;20480;-50
2023/09/06 02:21:04;;;;;;;3.50;3.20;;;;;;;18.21;88.30;101775.84;5045573;28;20177;-51
2023/09/06 02:23:29;;;;;;;4.65;3.28;;;;;;;18.19;89.59;101780.53;5040991;28;20534;-50
2023/09/06 02:25:56;;;;;;;7.35;3.70;;;;;;;18.17;89.70;101782.53;5041512;28;20036;-51
2023/09/06 02:28:21;;;;;;;5.65;3.80;;;;;;;18.15;88.71;101784.47;5043288;28;20181;-51
2023/09/06 02:30:47;;;;;;;7.85;3.72;;;;;;;18.14;87.99;101782.81;5044283;28;20081;-50
2023/09/06 02:33:14;;;;;;;7.57;3.70;;;;;;;18.14;89.34;101787.34;5044679;28;20061;-51
2023/09/06 02:35:43;;;;;;;6.07;3.63;;;;;;;18.09;89.33;101788.63;5044021;28;20033;-51
2023/09/06 02:38:10;;;;;;;4.32;3.67;;;;;;;18.08;89.98;101788.75;5051729;28;20040;-53
2023/09/06 02:40:36;;;;;;;6.85;3.53;;;;;;;18.07;90.65;101797.81;5047869;28;20051;-51
2023/09/06 02:43:02;;;;;;;6.95;3.78;;;;;;;18.00;90.64;101794.00;5053042;28;20510;-53
2023/09/06 02:45:36;;;;;;;4.72;3.90;;;;;;;17.97;91.44;101783.53;5041714;28;20024;-50
2023/09/06 02:48:06;;;;;;;6.35;3.80;;;;;;;17.96;90.78;101789.91;5054757;28;20040;-50
2023/09/06 02:50:35;;;;;;;3.88;3.45;;;;;;;17.90;91.01;101791.31;5042327;28;20033;-51
2023/09/06 02:53:03;;;;;;;7.05;3.83;;;;;;;17.84;91.96;101787.34;5050558;28;20029;-50
2023/09/06 02:55:28;;;;;;;4.72;3.38;;;;;;;17.83;92.31;101788.31;5052205;28;20025;-50
2023/09/06 02:57:56;;;;;;;4.28;3.42;;;;;;;17.81;91.99;101784.09;5045956;28;20080;-50
2023/09/06 03:00:25;;;;;;;7.35;3.42;;;;;;;17.75;92.40;101790.84;5056381;28;20045;-50
2023/09/06 03:02:53;;;;;;;8.98;3.90;;;;;;;17.72;92.78;101785.78;5045897;28;20455;-50
2023/09/06 03:05:20;;;;;;;5.28;3.53;;;;;;;17.67;93.08;101796.09;5048462;28;20463;-50
2023/09/06 03:07:48;;;;;;;5.93;3.47;;;;;;;17.65;92.71;101792.69;5050217;28;20060;-51
2023/09/06 03:10:19;;;;;;;5.00;3.60;;;;;;;17.64;92.50;101794.53;5049716;28;20028;-50
2023/09/06 03:13:05;;;;;;;6.80;3.80;;;;;;;17.56;93.11;101792.56;5043020;28;20018;-52
2023/09/06 03:15:31;;;;;;;4.45;3.33;;;;;;;17.56;92.66;101792.56;5044802;28;20569;-51
2023/09/06 03:18:02;;;;;;;5.43;4.28;;;;;;;17.53;92.73;101798.19;5043418;28;20037;-50
2023/09/06 03:20:31;;;;;;;5.22;3.70;;;;;;;17.44;93.58;101791.00;5041733;28;20025;-50
2023/09/06 03:22:59;;;;;;;8.65;4.00;;;;;;;17.39;93.08;101794.09;5049028;28;20120;-52
2023/09/06 03:25:26;;;;;;;7.40;3.90;;;;;;;17.43;93.77;101793.81;5058545;28;20029;-52
2023/09/06 03:27:59;;;;;;;6.53;3.78;;;;;;;17.35;94.03;101791.81;5050015;28;20029;-52
2023/09/06 03:30:27;;;;;;;7.50;3.67;;;;;;;17.39;93.32;101796.78;5046290;28;20161;-51
2023/09/06 03:32:53;;;;;;;8.07;4.18;;;;;;;17.34;93.33;101792.81;5045289;28;20026;-51
2023/09/06 03:35:22;;;;;;;5.35;3.83;;;;;;;17.30;93.75;101797.63;5040698;28;20490;-50
2023/09/06 03:37:47;;;;;;;5.70;3.70;;;;;;;17.32;93.25;101800.16;5054933;28;20086;-51
2023/09/06 03:40:25;;;;;;;5.95;3.70;;;;;;;17.24;94.19;101792.81;5048625;28;20109;-50
2023/09/06 03:42:54;;;;;;;6.38;4.22;;;;;;;17.20;95.16;101799.41;5047291;28;20045;-51
2023/09/06 03:45:24;;;;;;;5.22;3.45;;;;;;;17.17;94.88;101800.56;5052897;28;20056;-50
2023/09/06 03:47:54;;;;;;;5.22;3.67;;;;;;;17.12;95.76;101799.25;5047402;28;20057;-51
2023/09/06 03:50:23;;;;;;;4.35;3.70;;;;;;;17.08;95.86;101801.38;5048235;28;20029;-52
2023/09/06 03:52:50;;;;;;;;;;;;;;;17.19;91.65;101797.75;5049210;28;20166;-51
2023/09/06 03:55:16;;;;;;;4.63;3.42;;;;;;;17.05;95.42;101801.63;5050728;28;20419;-52
2023/09/06 03:57:42;;;;;;;7.20;4.15;;;;;;;17.01;95.60;101806.44;5056350;28;20029;-51
2023/09/06 04:00:29;;;;;;;4.82;3.75;;;;;;;16.97;96.16;101801.47;5050233;28;20033;-50
2023/09/06 04:02:55;;;;;;;5.90;3.65;;;;;;;16.92;96.44;101807.25;5046732;28;20033;-52
2023/09/06 04:05:25;;;;;;;7.25;4.05;;;;;;;16.92;96.23;101801.91;5050095;28;20020;-51
2023/09/06 04:07:53;;;;;;;6.72;3.70;;;;;;;16.84;96.13;101804.38;5048421;28;20036;-52
2023/09/06 04:10:21;;;;;;;6.60;3.72;;;;;;;16.89;95.65;101804.00;5049540;28;20408;-50
2023/09/06 04:12:48;;;;;;;5.03;4.00;;;;;;;16.84;96.08;101807.06;5048275;28;20468;-51
2023/09/06 04:15:14;;;;;;;5.40;4.00;;;;;;;16.82;96.09;101809.03;5049755;28;20049;-52
2023/09/06 04:17:42;;;;;;;4.25;3.78;;;;;;;16.77;96.67;101808.56;5053235;28;20095;-52
2023/09/06 04:20:19;;;;;;;7.43;3.97;;;;;;;16.76;96.81;101813.09;5064184;28;20037;-50
2023/09/06 04:22:47;;;;;;;4.10;3.70;;;;;;;16.70;97.34;101810.94;5045274;28;20106;-51
2023/09/06 04:25:16;;;;;;;5.13;4.20;;;;;;;16.68;98.11;101820.94;5050422;28;20493;-51
2023/09/06 04:27:45;;;;;;;6.00;3.83;;;;;;;16.65;97.48;101821.22;5050372;28;20024;-52
2023/09/06 04:30:12;;;;;;;4.90;3.80;;;;;;;16.68;97.05;101822.78;5049787;28;20029;-51
2023/09/06 04:32:38;;;;;;;4.97;3.92;;;;;;;16.62;96.80;101819.66;5048935;28;20247;-51
2023/09/06 04:35:04;;;;;;;9.32;3.70;;;;;;;16.61;97.55;101826.00;5041081;28;20116;-54
2023/09/06 04:37:29;;;;;;;10.35;4.30;;;;;;;16.60;98.21;101823.44;5050591;28;20052;-52
2023/09/06 04:39:54;;;;;;;5.47;4.13;;;;;;;16.57;98.02;101821.91;5043672;28;20097;-52
2023/09/06 04:42:20;;;;;;;4.28;3.88;;;;;;;16.56;98.22;101828.22;5045613;28;20064;-51
2023/09/06 04:44:45;;;;;;;5.35;3.78;;;;;;;16.54;98.71;101821.31;5054218;28;20128;-52
2023/09/06 04:47:14;;;;;;;4.75;3.90;;;;;;;16.55;98.87;101826.53;5044726;28;20222;-53
2023/09/06 04:49:40;;;;;;;10.40;4.15;;;;;;;16.53;98.27;101827.66;5044219;28;20057;-52
2023/09/06 04:52:05;;;;;;;5.78;3.85;;;;;;;16.51;98.68;101830.47;5047230;28;20025;-52
2023/09/06 04:54:32;;;;;;;6.15;4.38;;;;;;;16.46;99.14;101833.53;5043718;28;20044;-52
2023/09/06 04:56:58;;;;;;;7.53;4.40;;;;;;;16.48;98.83;101832.56;5040011;28;20481;-52
2023/09/06 04:59:23;;;;;;;6.13;3.88;;;;;;;16.48;98.36;101836.09;5043429;28;20034;-53
2023/09/06 05:01:49;;;;;;;7.22;3.97;;;;;;;16.42;99.65;101832.13;5044761;28;20017;-52
2023/09/06 05:04:14;;;;;;;6.35;4.25;;;;;;;16.40;99.47;101839.44;5047158;28;20067;-52
2023/09/06 05:06:40;;;;;;;5.53;4.35;;;;;;;16.42;99.89;101841.97;5044972;28;20060;-52
2023/09/06 05:09:07;;;;;;;5.43;4.32;;;;;;;16.42;99.43;101850.00;5041690;28;20036;-52
2023/09/06 05:11:32;;;;;;;6.68;4.53;;;;;;;16.41;99.12;101846.50;5047525;28;20430;-51
2023/09/06 05:13:57;;;;;;;7.03;4.63;;;;;;;16.40;99.43;101855.53;5051362;28;20104;-54
2023/09/06 05:16:23;;;;;;;8.30;4.57;;;;;;;16.41;100.00;101848.34;5045105;28;20052;-54
2023/09/06 05:18:48;;;;;;;7.07;4.97;;;;;;;16.43;100.00;101862.44;5050556;28;20104;-53
2023/09/06 05:21:13;;;;;;;9.27;5.47;;;;;;;16.41;98.77;101862.56;5042229;28;20029;-53
2023/09/06 05:23:39;;;;;;;7.30;4.45;;;;;;;16.43;100.00;101857.09;5038939;28;20033;-51
2023/09/06 05:26:04;;;;;;;8.38;5.30;;;;;;;16.44;100.00;101856.13;5047190;28;20047;-54
2023/09/06 05:28:31;;;;;;;6.57;4.53;;;;;;;16.40;99.89;101860.03;5044145;28;20068;-51
2023/09/06 05:30:57;;;;;;;7.60;4.53;;;;;;;16.45;99.60;101861.34;5048981;28;20391;-52
2023/09/06 05:33:22;;;;;;;8.45;4.93;;;;;;;16.43;99.73;101863.28;5044406;28;20017;-52
2023/09/06 05:35:47;;;;;;;9.30;4.70;;;;;;;16.41;100.00;101867.09;5042077;28;20049;-53
2023/09/06 05:38:13;;;;;;;8.50;5.07;;;;;;;16.44;100.00;101867.69;5054721;28;20024;-53
2023/09/06 05:40:43;;;;;;;8.13;5.13;;;;;;;16.43;100.00;101871.34;5045003;28;20045;-52
2023/09/06 05:43:08;;;;;;;8.95;4.70;;;;;;;16.44;100.00;101867.69;5043418;28;20124;-52
2023/09/06 05:45:33;;;;;;;9.68;4.85;;;;;;;16.46;100.00;101868.41;5048496;28;20470;-52
2023/09/06 05:47:59;;;;;;;9.00;5.03;;;;;;;16.45;100.00;101868.53;5049396;28;20020;-53
2023/09/06 05:50:26;;;;;;;7.82;4.65;;;;;;;16.46;100.00;101875.59;5045238;28;20029;-51
2023/09/06 05:52:52;;;;;;;9.73;5.95;;;;;;;16.48;100.00;101870.09;5046975;28;20108;-54
2023/09/06 05:55:17;;;;;;;9.68;6.10;;;;;;;16.52;100.00;101871.53;5044588;28;20025;-51
2023/09/06 05:57:42;;;;;;;9.52;5.95;;;;;;;16.56;100.00;101881.03;5039707;28;20017;-51
2023/09/06 06:00:12;;;;;;;12.00;6.30;;;;;;;16.58;100.00;101873.69;5045964;28;20021;-51
2023/09/06 06:02:39;;;;;;;12.25;6.75;;;;;;;16.62;100.00;101875.13;5051777;28;20017;-52
2023/09/06 06:05:05;;;;;;;11.27;6.80;;;;;;;16.66;100.00;101879.25;5045758;28;20397;-51
2023/09/06 06:07:30;;;;;;;17.42;7.18;;;;;;;16.71;100.00;101871.66;5042613;28;20033;-51
2023/09/06 06:09:56;;;;;;;24.38;7.68;;;;;;;16.74;100.00;101868.72;5035370;28;20056;-54
2023/09/06 06:12:22;;;;;;;11.95;6.47;;;;;;;16.79;100.00;101871.00;5047587;28;20036;-51
2023/09/06 06:14:49;;;;;;;12.52;6.95;;;;;;;16.85;100.00;101875.84;5044729;28;20048;-53
2023/09/06 06:17:15;;;;;;;12.50;6.85;;;;;;;16.91;100.00;101879.84;5044478;28;20048;-51
2023/09/06 06:19:40;;;;;;;17.17;6.72;;;;;;;16.97;100.00;101879.28;5041658;28;20024;-51
2023/09/06 06:22:05;;;;;;;14.93;7.03;;;;;;;17.06;100.00;101878.50;5042426;28;20499;-53
2023/09/06 06:24:33;;;;;;;14.40;6.60;;;;;;;17.11;100.00;101892.38;5043575;28;20037;-53
2023/09/06 06:26:58;;;;;;;16.73;6.88;;;;;;;17.18;99.74;101882.78;5044250;28;20124;-53
2023/09/06 06:29:24;;;;;;;25.83;7.85;;;;;;;17.25;99.56;101885.78;5045713;28;20506;-51
2023/09/06 06:31:50;;;;;;;16.88;6.93;;;;;;;17.33;99.30;101890.47;5040704;28;20105;-54
2023/09/06 06:34:18;;;;;;;14.25;6.57;;;;;;;17.39;99.11;101888.09;5043375;28;20083;-51
2023/09/06 06:36:43;;;;;;;17.60;7.35;;;;;;;17.46;98.40;101884.88;5042097;28;20034;-53
2023/09/06 06:39:10;;;;;;;13.85;7.10;;;;;;;17.53;98.16;101891.38;5044243;28;20397;-52
2023/09/06 06:41:36;;;;;;;12.05;6.75;;;;;;;17.59;97.73;101887.31;5050135;28;20037;-53
2023/09/06 06:44:01;;;;;;;16.13;6.78;;;;;;;17.67;97.32;101888.31;5049775;28;20237;-53
2023/09/06 06:46:35;;;;;;;14.93;6.68;;;;;;;17.76;97.09;101890.16;5053390;28;20013;-55
2023/09/06 06:49:02;;;;;;;14.68;6.57;;;;;;;17.83;96.54;101895.81;5048736;28;20032;-54
2023/09/06 06:51:35;;;;;;;10.88;6.00;;;;;;;17.96;95.62;101897.44;5046136;28;20359;-52
2023/09/06 06:54:14;;;;;;;14.02;5.95;;;;;;;18.06;94.42;101903.66;5042514;28;20036;-52
2023/09/06 06:56:40;;;;;;;11.05;5.85;;;;;;;18.17;94.50;101899.97;5042229;28;20108;-53
2023/09/06 06:59:07;;;;;;;8.10;5.60;;;;;;;18.25;94.93;101902.78;5042033;28;20035;-53
2023/09/06 07:01:33;;;;;;;10.23;5.30;;;;;;;18.36;94.30;101901.81;5043515;28;20546;-50
2023/09/06 07:03:59;;;;;;;9.60;5.32;;;;;;;18.47;94.73;101909.75;5050430;28;20051;-53
2023/09/06 07:06:26;;;;;;;7.90;5.18;;;;;;;18.60;93.22;101902.22;5046046;28;20048;-50
2023/09/06 07:08:52;;;;;;;11.80;5.30;;;;;;;18.79;92.61;101912.06;5049119;28;20036;-51
2023/09/06 07:11:19;;;;;;;9.95;5.35;;;;;;;18.92;91.71;101908.22;5052063;28;20024;-50
2023/09/06 07:13:47;;;;;;;6.45;4.68;;;;;;;19.12;88.69;101912.56;5048219;28;20132;-50
2023/09/06 07:16:15;;;;;;;7.32;4.55;;;;;;;19.38;86.97;101918.13;5043068;28;20486;-50
2023/09/06 07:18:41;;;;;;;6.18;4.60;;;;;;;19.61;88.01;101906.94;5040623;28;20025;-51
2023/09/06 07:21:06;;;;;;;5.50;4.30;;;;;;;19.93;86.91;101905.63;5046213;28;20098;-53
2023/09/06 07:23:31;;;;;;;6.80;3.97;;;;;;;20.18;84.84;101905.84;5046788;28;20501;-51
2023/09/06 07:25:57;;;;;;;5.78;4.13;;;;;;;20.45;84.06;101913.00;5038516;28;20329;-50
2023/09/06 07:28:25;;;;;;;4.60;3.95;;;;;;;20.70;83.35;101912.22;5046926;28;20573;-50
2023/09/06 07:30:50;;;;;;;5.53;3.85;;;;;;;21.00;81.73;101909.16;5043395;28;20043;-50
2023/09/06 07:33:16;;;;;;;7.78;3.58;;;;;;;21.29;78.31;101907.97;5043245;28;20033;-52
2023/09/06 07:35:44;;;;;;;7.07;3.38;;;;;;;21.60;78.49;101903.75;5041449;28;20035;-50
2023/09/06 07:38:09;;;;;;;4.28;3.15;;;;;;;21.92;75.25;101909.38;5044502;28;20028;-51
2023/09/06 07:40:34;;;;;;;6.47;3.25;;;;;;;22.19;74.32;101908.22;5044930;28;20033;-52
2023/09/06 07:43:00;;;;;;;7.32;3.20;;;;;;;22.45;71.58;101905.38;5045438;28;20041;-50
2023/09/06 07:45:25;;;;;;;8.18;3.20;;;;;;;22.69;71.16;101909.91;5042237;28;20024;-49
2023/09/06 07:47:51;;;;;;;8.40;3.15;;;;;;;22.91;69.70;101915.63;5043697;28;20146;-50
2023/09/06 07:50:17;;;;;;;5.30;3.38;;;;;;;23.20;68.90;101912.38;5041048;28;20108;-50
2023/09/06 07:52:42;;;;;;;6.78;2.58;;;;;;;23.48;67.84;101911.06;5045629;28;20029;-50
2023/09/06 07:55:08;;;;;;;5.75;2.95;;;;;;;23.70;67.24;101912.97;5045832;28;20039;-50
2023/09/06 07:57:34;;;;;;;8.27;3.33;;;;;;;23.94;65.24;101913.88;5044112;28;20465;-50
2023/09/06 07:59:59;;;;;;;8.25;3.10;;;;;;;24.19;64.54;101917.25;5045839;28;20028;-53
2023/09/06 08:02:24;;;;;;;10.77;3.08;;;;;;;24.33;62.11;101912.88;5047820;28;20025;-52
2023/09/06 08:04:53;;;;;;;4.07;2.80;;;;;;;24.62;61.59;101914.03;5048824;28;20427;-51
2023/09/06 08:07:19;;;;;;;7.28;3.03;;;;;;;24.84;61.31;101921.25;5046434;28;20032;-50
2023/09/06 08:09:45;;;;;;;8.70;3.30;;;;;;;25.12;60.91;101920.63;5043906;28;20028;-51
2023/09/06 08:12:10;;;;;;;6.45;3.30;;;;;;;25.35;59.91;101927.84;5046857;28;20379;-52
2023/09/06 08:14:36;;;;;;;6.47;3.10;;;;;;;25.60;60.27;101915.63;5042209;28;20032;-51
2023/09/06 08:17:02;;;;;;;4.07;3.15;;;;;;;25.78;58.57;101915.19;5049431;28;20029;-51
2023/09/06 08:19:27;;;;;;;7.78;3.10;;;;;;;26.01;57.71;101917.78;5049084;28;20104;-50
2023/09/06 08:21:53;;;;;;;9.32;3.20;;;;;;;26.20;56.23;101918.16;5048194;28;20108;-50
2023/09/06 08:24:18;;;;;;;6.28;2.95;;;;;;;26.42;56.55;101912.69;5052198;28;20021;-50
2023/09/06 08:26:48;;;;;;;6.88;3.00;;;;;;;26.52;55.54;101921.38;5055795;28;20147;-51
2023/09/06 08:29:13;;;;;;;7.30;3.00;;;;;;;26.79;54.40;101911.53;5047649;28;20104;-53
2023/09/06 08:31:39;;;;;;;9.65;2.88;;;;;;;26.88;52.94;101910.34;5046549;28;20119;-53
2023/09/06 08:34:04;;;;;;;5.90;2.85;;;;;;;27.12;54.58;101916.34;5039659;28;20478;-50
2023/09/06 08:36:29;;;;;;;8.13;3.20;;;;;;;27.38;51.99;101915.66;5045427;28;20038;-51
2023/09/06 08:38:55;;;;;;;2.80;2.60;;;;;;;27.57;52.92;101908.59;5038076;28;20587;-56
2023/09/06 08:41:20;;;;;;;5.22;2.92;;;;;;;27.72;50.95;101911.16;5026528;28;20102;-53
2023/09/06 08:43:47;;;;;;;7.97;2.88;;;;;;;27.79;50.29;101898.34;5034195;28;20081;-54
2023/09/06 08:46:23;;;;;;;6.72;2.90;;;;;;;28.02;52.66;101913.56;5038515;28;20148;-55
2023/09/06 08:48:49;;;;;;;4.72;2.70;;;;;;;28.28;50.49;101909.16;5040637;28;20577;-55
2023/09/06 08:51:15;;;;;;;6.90;3.47;;;;;;;28.56;50.50;101907.09;5045332;28;20126;-55
2023/09/06 08:53:43;;;;;;;3.50;2.42;;;;;;;28.77;51.17;101911.44;5046130;28;20033;-54
2023/09/06 08:56:09;;;;;;;5.80;2.83;;;;;;;29.05;50.21;101914.97;5037895;28;20040;-54
2023/09/06 08:58:35;;;;;;;5.50;2.45;;;;;;;29.32;48.20;101911.09;5040256;28;20304;-55
2023/09/06 09:01:06;;;;;;;4.30;2.28;;;;;;;29.45;46.85;101906.66;5042791;28;20454;-56
2023/09/06 09:03:32;;;;;;;4.45;2.53;;;;;;;29.58;47.07;101909.31;5035462;28;20043;-52
2023/09/06 09:05:59;;;;;;;3.95;2.30;;;;;;;29.73;44.86;101910.91;5047123;28;20029;-53
2023/09/06 09:08:27;;;;;;;4.00;2.00;;;;;;;29.86;44.50;101908.13;5040080;28;20084;-53
2023/09/06 09:11:10;;;;;;;4.93;2.40;;;;;;;29.92;46.18;101907.25;5040422;28;20074;-55
2023/09/06 09:13:35;;;;;;;6.32;2.20;;;;;;;30.02;43.90;101915.81;5043873;28;20032;-55
2023/09/06 09:16:07;;;;;;;3.97;2.20;;;;;;;30.13;44.71;101905.19;5053846;28;20436;-53
2023/09/06 09:18:34;;;;;;;5.75;3.10;;;;;;;30.35;45.13;101906.50;5041282;28;20083;-53
2023/09/06 09:21:00;;;;;;;3.72;2.05;;;;;;;30.48;44.45;101910.19;5040361;28;20506;-56
2023/09/06 09:23:28;;;;;;;3.15;2.20;;;;;;;30.83;43.73;101906.91;5039552;28;20983;-56
2023/09/06 09:25:53;;;;;;;3.08;2.20;;;;;;;30.86;42.00;101911.94;5044083;28;20025;-55
2023/09/06 09:28:20;;;;;;;7.05;2.25;;;;;;;30.90;42.39;101908.50;5040477;28;20570;-53
2023/09/06 09:30:46;;;;;;;6.60;2.40;;;;;;;31.10;42.32;101911.06;5040791;28;20025;-54
2023/09/06 09:33:11;;;;;;;4.25;2.05;;;;;;;31.18;43.08;101897.03;5037468;28;20028;-52
2023/09/06 09:35:37;;;;;;;5.88;2.30;;;;;;;31.63;41.62;101900.50;5039011;28;20471;-53
2023/09/06 09:38:04;;;;;;;3.45;1.95;;;;;;;31.77;40.52;101901.97;5043250;28;20036;-52
2023/09/06 09:40:32;;;;;;;3.83;2.00;;;;;;;31.94;39.11;101896.63;5048727;28;20056;-52
2023/09/06 09:43:00;;;;;;;4.35;1.98;;;;;;;31.98;38.78;101910.75;5043309;28;20045;-53
2023/09/06 09:45:28;;;;;;;6.07;2.10;;;;;;;31.98;39.33;101897.84;5050297;28;20032;-53
2023/09/06 09:47:55;;;;;;;5.03;1.90;;;;;;;31.99;39.09;101894.00;5035651;28;20029;-53
2023/09/06 09:50:29;;;;;;;2.13;1.92;;;;;;;32.14;39.38;101892.75;5040724;28;20025;-52
2023/09/06 09:52:55;;;;;;;4.53;2.10;;;;;;;32.19;38.42;101885.50;5049337;28;20035;-52
2023/09/06 09:55:27;;;;;;;3.60;2.17;;;;;;;32.31;38.45;101891.00;5044260;28;20029;-54
2023/09/06 09:57:54;;;;;;;2.70;2.03;;;;;;;32.40;37.38;101895.06;5047013;28;20059;-52
2023/09/06 10:00:27;;;;;;;3.47;2.45;;;;;;;32.35;37.01;101888.59;5042408;28;20031;-52
2023/09/06 10:02:56;;;;;;;2.97;2.00;;;;;;;32.34;37.11;101896.00;5041710;28;20032;-55
2023/09/06 10:05:23;;;;;;;4.13;2.30;;;;;;;32.43;37.63;101893.75;5041479;28;20120;-53
2023/09/06 10:07:49;;;;;;;4.57;2.53;;;;;;;32.50;37.44;101896.38;5038876;28;20090;-55
2023/09/06 10:10:15;;;;;;;5.30;2.30;;;;;;;32.66;37.42;101892.94;5047658;28;20578;-53
2023/09/06 10:12:44;;;;;;;2.28;2.08;;;;;;;32.64;36.81;101897.81;5049160;28;20060;-53
2023/09/06 10:15:15;;;;;;;3.33;1.90;;;;;;;32.86;37.71;101888.94;5050521;28;20021;-53
2023/09/06 10:17:42;;;;;;;3.00;2.20;;;;;;;33.01;37.79;101887.38;5050537;28;20035;-52
2023/09/06 10:20:14;;;;;;;3.55;2.10;;;;;;;33.05;36.04;101884.97;5053039;28;20047;-52
2023/09/06 10:22:43;;;;;;;4.65;2.22;;;;;;;33.12;35.22;101893.09;5050618;28;20033;-52
2023/09/06 10:25:10;;;;;;;3.33;2.10;;;;;;;33.22;35.99;101876.78;5051579;28;20029;-52
2023/09/06 10:27:44;;;;;;;7.03;2.03;;;;;;;33.36;35.53;101889.22;5045651;28;20112;-53
2023/09/06 10:30:11;;;;;;;4.45;2.40;;;;;;;33.50;34.82;101877.91;5043825;28;20033;-55
2023/09/06 10:32:43;;;;;;;7.88;2.40;;;;;;;33.69;34.91;101887.66;5044507;28;20454;-53
2023/09/06 10:35:25;;;;;;;2.58;2.10;;;;;;;33.79;36.54;101876.00;5042521;28;20037;-53
2023/09/06 10:38:05;;;;;;;5.25;2.40;;;;;;;33.95;35.96;101879.81;5051593;28;20031;-53
2023/09/06 10:40:49;;;;;;;4.10;2.50;;;;;;;33.97;35.74;101883.16;5047463;28;20033;-53
2023/09/06 10:43:20;;;;;;;3.67;2.42;;;;;;;34.10;34.17;101871.78;5047636;28;20083;-54
2023/09/06 10:45:55;;;;;;;4.07;2.30;;;;;;;34.24;34.57;101871.47;5046956;28;20028;-52
2023/09/06 10:48:21;;;;;;;4.93;2.40;;;;;;;34.35;33.64;101870.56;5044782;28;20026;-56
2023/09/06 10:51:07;;;;;;;4.57;2.05;;;;;;;34.35;35.11;101878.00;5041957;28;20116;-53
2023/09/06 10:53:40;;;;;;;4.53;2.15;;;;;;;34.29;33.49;101866.03;5052126;28;20028;-54
2023/09/06 10:56:06;;;;;;;3.92;2.67;;;;;;;34.26;32.82;101858.31;5047775;28;20044;-54
2023/09/06 10:58:36;;;;;;;8.18;2.35;;;;;;;34.34;33.82;101865.28;5045441;28;20474;-55
2023/09/06 11:01:14;;;;;;;7.82;2.50;;;;;;;34.55;34.27;101861.75;5040560;28;20032;-54
2023/09/06 11:03:47;;;;;;;4.05;2.50;;;;;;;34.94;35.82;101864.50;5052643;28;20078;-55
2023/09/06 11:06:12;;;;;;;3.50;2.22;;;;;;;34.89;32.81;101863.59;5050823;28;20463;-51
2023/09/06 11:08:38;;;;;;;4.05;2.35;;;;;;;34.71;32.51;101862.81;5048764;28;20047;-53
2023/09/06 11:11:09;;;;;;;4.07;2.45;;;;;;;34.69;32.69;101853.94;5047919;28;20122;-51
2023/09/06 11:13:35;;;;;;;3.30;2.55;;;;;;;34.71;31.48;101862.81;5051338;28;20033;-53
2023/09/06 11:16:03;;;;;;;4.72;2.42;;;;;;;34.49;32.05;101865.50;5045134;28;20052;-54
2023/09/06 11:18:30;;;;;;;3.00;2.40;;;;;;;34.74;31.56;101854.03;5051028;28;20107;-54
2023/09/06 11:20:56;;;;;;;4.57;2.50;;;;;;;34.68;30.43;101852.28;5042044;28;20447;-51
2023/09/06 11:23:22;;;;;;;4.50;2.50;;;;;;;34.69;31.65;101851.19;5049724;28;20020;-51
2023/09/06 11:25:54;;;;;;;3.17;2.47;;;;;;;34.68;32.20;101851.44;5039570;28;20033;-54